Time;durP1;ratioP1;P1;durP2;ratioP2;P2;SDS_P1;SDS_P2;PMS_P1;PMS_P2;Temp;Humidity;BMP_temperature;BMP_pressure;BME280_temperature;BME280_humidity;BME280_pressure;Samples;Min_cycle;Max_cycle;Signal;HPM_P1;HPM_P2
2022/04/28 00:01:05;;;;;;;10.23;4.15;;;8.10;62.70;;;;;;5048008;28;20051;-66
2022/04/28 00:03:31;;;;;;;10.67;3.93;;;8.10;62.60;;;;;;5030895;28;20396;-66
2022/04/28 00:05:59;;;;;;;9.87;3.60;;;8.00;62.60;;;;;;5041498;28;20125;-66
2022/04/28 00:08:25;;;;;;;10.48;3.88;;;8.00;62.60;;;;;;5013035;28;20048;-66
2022/04/28 00:10:51;;;;;;;8.57;3.53;;;8.00;62.50;;;;;;5048050;28;20047;-66
2022/04/28 00:13:17;;;;;;;8.27;3.63;;;8.00;62.50;;;;;;5030970;28;20926;-66
2022/04/28 00:15:43;;;;;;;9.65;3.42;;;8.00;62.40;;;;;;5035079;28;20087;-66
2022/04/28 00:18:09;;;;;;;13.33;3.77;;;8.00;62.40;;;;;;5050963;28;20126;-66
2022/04/28 00:20:35;;;;;;;8.37;3.80;;;8.00;62.60;;;;;;5051130;28;20082;-66
2022/04/28 00:23:01;;;;;;;8.70;4.10;;;8.00;62.70;;;;;;5034643;28;20287;-66
2022/04/28 00:25:26;;;;;;;8.60;3.77;;;8.00;62.70;;;;;;5051572;28;20065;-66
2022/04/28 00:27:54;;;;;;;10.37;4.07;;;8.00;63.10;;;;;;5034512;28;20060;-66
2022/04/28 00:30:20;;;;;;;9.13;3.17;;;8.00;62.80;;;;;;5017124;28;20756;-66
2022/04/28 00:32:46;;;;;;;9.55;2.03;;;8.00;62.60;;;;;;5024134;28;20076;-66
2022/04/28 00:35:12;;;;;;;8.37;2.50;;;8.00;61.60;;;;;;5051737;28;20151;-66
2022/04/28 00:37:38;;;;;;;8.13;2.30;;;8.00;61.00;;;;;;5023761;28;20040;-66
2022/04/28 00:40:05;;;;;;;6.47;2.53;;;8.00;61.10;;;;;;5034043;28;20283;-66
2022/04/28 00:42:30;;;;;;;9.02;2.83;;;8.00;61.20;;;;;;5048319;28;20051;-66
2022/04/28 00:44:56;;;;;;;14.47;3.67;;;8.00;61.20;;;;;;5051396;28;20052;-66
2022/04/28 00:50:38;;;;;;;6.67;3.13;;;8.00;61.30;;;;;;5016319;28;20049;-66
2022/04/28 00:52:56;;;;;;;10.00;3.95;;;8.00;61.50;;;;;;5063436;28;20450;-66
2022/04/28 00:55:22;;;;;;;8.52;3.58;;;8.00;61.50;;;;;;5000782;28;20123;-66
2022/04/28 00:57:49;;;;;;;10.02;4.35;;;8.00;61.60;;;;;;5035130;28;20131;-66
2022/04/28 01:00:15;;;;;;;11.40;4.18;;;8.00;61.80;;;;;;5049903;28;20121;-66
2022/04/28 01:02:41;;;;;;;10.50;4.38;;;8.00;61.90;;;;;;5026024;28;20771;-66
2022/04/28 01:05:07;;;;;;;10.53;3.50;;;8.00;62.10;;;;;;5033783;28;20057;-65
2022/04/28 01:07:32;;;;;;;9.67;3.10;;;8.00;62.30;;;;;;5032674;28;20048;-65
2022/04/28 01:09:58;;;;;;;10.87;3.40;;;8.00;62.30;;;;;;5015376;28;20048;-65
2022/04/28 01:12:24;;;;;;;9.53;3.20;;;8.00;62.20;;;;;;5050153;28;20453;-65
2022/04/28 01:14:50;;;;;;;8.90;3.28;;;8.00;62.50;;;;;;5050369;28;20076;-65
2022/04/28 01:17:16;;;;;;;12.53;2.37;;;8.00;62.30;;;;;;5029763;28;20485;-65
2022/04/28 01:19:42;;;;;;;8.23;3.07;;;8.00;61.80;;;;;;5031179;28;20816;-65
2022/04/28 01:22:08;;;;;;;13.47;3.10;;;8.00;61.60;;;;;;5050706;28;20098;-65
2022/04/28 01:24:36;;;;;;;7.50;2.60;;;8.00;61.60;;;;;;5032361;28;20068;-65
2022/04/28 01:27:03;;;;;;;9.25;2.58;;;8.00;61.60;;;;;;5045093;28;20043;-65
2022/04/28 01:29:33;;;;;;;10.63;2.50;;;8.00;61.50;;;;;;5040352;28;20508;-65
2022/04/28 01:31:59;;;;;;;8.65;2.75;;;7.90;61.40;;;;;;5043152;28;20086;-65
2022/04/28 01:34:25;;;;;;;9.68;2.85;;;7.90;61.80;;;;;;5048443;28;20107;-65
2022/04/28 01:36:50;;;;;;;8.27;2.60;;;7.90;61.70;;;;;;5050847;28;20068;-65
2022/04/28 01:39:16;;;;;;;8.43;2.53;;;7.90;61.70;;;;;;5031596;28;20048;-65
2022/04/28 01:41:42;;;;;;;16.23;3.23;;;7.90;61.60;;;;;;5031418;28;20051;-65
2022/04/28 01:44:08;;;;;;;5.20;2.60;;;7.80;61.70;;;;;;5031503;28;20431;-65
2022/04/28 01:46:34;;;;;;;11.88;3.10;;;7.80;61.80;;;;;;5032876;28;20597;-65
2022/04/28 01:49:00;;;;;;;9.33;2.87;;;7.80;61.70;;;;;;5032295;28;20033;-65
2022/04/28 01:56:54;;;;;;;10.05;3.38;;;7.80;61.30;;;;;;5047104;28;20045;-65
2022/04/28 01:59:20;;;;;;;9.57;2.80;;;7.80;61.30;;;;;;5025659;28;20049;-65
2022/04/28 02:01:46;;;;;;;9.77;3.30;;;7.70;61.50;;;;;;5048504;28;20040;-65
2022/04/28 02:04:11;;;;;;;10.53;3.30;;;7.70;61.60;;;;;;5040322;28;20102;-65
2022/04/28 02:06:37;;;;;;;10.60;3.40;;;7.70;61.50;;;;;;5008431;28;20415;-65
2022/04/28 02:09:03;;;;;;;6.63;2.70;;;7.70;61.70;;;;;;5026289;28;20041;-66
2022/04/28 02:11:29;;;;;;;8.02;3.10;;;7.70;61.70;;;;;;5031364;28;20040;-66
2022/04/28 02:13:55;;;;;;;10.93;2.60;;;7.70;61.70;;;;;;5020103;28;20481;-65
2022/04/28 02:16:20;;;;;;;9.17;2.70;;;7.60;61.50;;;;;;5047704;28;20048;-65
2022/04/28 02:18:46;;;;;;;9.17;2.80;;;7.60;61.30;;;;;;5009892;28;20041;-65
2022/04/28 02:21:12;;;;;;;11.00;3.07;;;7.60;61.30;;;;;;5021935;28;20040;-65
2022/04/28 02:23:37;;;;;;;10.43;2.80;;;7.60;60.80;;;;;;5032829;28;20070;-65
2022/04/28 02:26:03;;;;;;;9.90;2.93;;;7.60;60.30;;;;;;5039979;28;20153;-65
2022/04/28 02:28:29;;;;;;;11.77;2.97;;;7.60;60.30;;;;;;5035434;28;20070;-65
2022/04/28 02:30:54;;;;;;;13.70;4.43;;;7.60;60.00;;;;;;5048363;28;20058;-65
2022/04/28 02:33:20;;;;;;;12.17;3.57;;;7.60;60.00;;;;;;5041762;28;20041;-65
2022/04/28 02:35:46;;;;;;;9.43;3.10;;;7.60;60.20;;;;;;5027572;28;20053;-65
2022/04/28 02:38:12;;;;;;;9.20;3.22;;;7.60;60.30;;;;;;5027786;28;20090;-65
2022/04/28 02:40:38;;;;;;;7.60;2.30;;;7.60;60.50;;;;;;5047052;28;20044;-66
2022/04/28 02:43:04;;;;;;;7.53;2.60;;;7.50;60.50;;;;;;5014156;28;20248;-66
2022/04/28 02:45:30;;;;;;;12.20;3.53;;;7.50;60.40;;;;;;5014771;28;20066;-65
2022/04/28 02:47:55;;;;;;;10.67;3.03;;;7.50;60.40;;;;;;5031558;28;20568;-65
2022/04/28 02:50:24;;;;;;;8.13;3.57;;;7.50;60.30;;;;;;5041402;28;20077;-65
2022/04/28 02:52:52;;;;;;;10.60;3.10;;;7.60;60.30;;;;;;5041765;28;20056;-65
2022/04/28 02:55:18;;;;;;;12.20;3.15;;;7.50;60.40;;;;;;5048003;28;20053;-65
2022/04/28 02:57:44;;;;;;;7.03;2.70;;;7.50;60.50;;;;;;5027710;28;20036;-65
2022/04/28 03:00:10;;;;;;;11.97;3.10;;;7.50;60.50;;;;;;5012230;28;20037;-65
2022/04/28 03:02:36;;;;;;;8.55;3.50;;;7.50;60.50;;;;;;5036065;28;20485;-65
2022/04/28 03:05:04;;;;;;;9.13;3.23;;;7.40;60.50;;;;;;5012433;28;20048;-65
2022/04/28 03:13:00;;;;;;;11.10;3.10;;;7.30;60.70;;;;;;5033295;28;20139;-65
2022/04/28 03:15:25;;;;;;;8.70;2.77;;;7.30;60.90;;;;;;5045403;28;20155;-65
2022/04/28 03:17:51;;;;;;;8.23;3.07;;;7.30;61.00;;;;;;5047184;28;20040;-65
2022/04/28 03:20:17;;;;;;;7.90;2.57;;;7.20;61.10;;;;;;5028156;28;20081;-65
2022/04/28 03:22:43;;;;;;;8.63;3.20;;;7.20;61.20;;;;;;5047625;28;20433;-65
2022/04/28 03:25:09;;;;;;;9.10;3.23;;;7.20;61.40;;;;;;5032750;28;20060;-65
2022/04/28 03:27:36;;;;;;;9.93;3.20;;;7.20;61.40;;;;;;5048367;28;20049;-65
2022/04/28 03:30:03;;;;;;;6.80;3.22;;;7.20;61.60;;;;;;5044217;28;20051;-65
2022/04/28 03:32:28;;;;;;;9.23;3.58;;;7.20;61.60;;;;;;5028082;28;20048;-65
2022/04/28 03:34:54;;;;;;;6.93;3.13;;;7.20;62.40;;;;;;5047609;28;20417;-65
2022/04/28 03:37:20;;;;;;;12.20;3.67;;;7.20;62.20;;;;;;5003719;28;20040;-65
2022/04/28 03:39:45;;;;;;;9.93;3.87;;;7.10;62.30;;;;;;5029491;28;20040;-65
2022/04/28 03:42:11;;;;;;;9.20;3.53;;;7.10;62.20;;;;;;5011888;28;20659;-65
2022/04/28 03:44:37;;;;;;;11.33;4.60;;;7.20;62.40;;;;;;5034724;28;20294;-65
2022/04/28 03:47:03;;;;;;;11.80;3.88;;;7.20;62.40;;;;;;5040689;28;20032;-65
2022/04/28 03:49:29;;;;;;;8.43;3.67;;;7.20;62.50;;;;;;5022490;28;20120;-65
2022/04/28 03:51:55;;;;;;;9.97;3.63;;;7.20;62.70;;;;;;5027061;28;20448;-65
2022/04/28 03:54:21;;;;;;;15.13;3.90;;;7.20;62.60;;;;;;5031545;28;20348;-65
2022/04/28 03:56:47;;;;;;;10.57;4.20;;;7.10;62.80;;;;;;5018537;28;20433;-65
2022/04/28 03:59:13;;;;;;;8.77;4.85;;;7.20;63.10;;;;;;5041331;28;20043;-65
2022/04/28 04:01:39;;;;;;;7.40;3.87;;;7.20;63.70;;;;;;5019198;28;20024;-65
2022/04/28 04:04:05;;;;;;;12.03;4.30;;;7.10;63.10;;;;;;5031000;28;20044;-65
2022/04/28 04:06:31;;;;;;;11.20;4.20;;;7.10;63.40;;;;;;5022597;28;20138;-65
2022/04/28 04:08:58;;;;;;;11.65;4.07;;;7.20;63.10;;;;;;5037585;28;20107;-65
2022/04/28 04:11:24;;;;;;;8.82;4.28;;;7.10;63.30;;;;;;5038843;28;20167;-65
2022/04/28 04:13:50;;;;;;;7.97;3.87;;;7.20;63.40;;;;;;5041020;28;20120;-65
2022/04/28 04:16:16;;;;;;;10.27;4.38;;;7.20;63.50;;;;;;5029054;28;20503;-65
2022/04/28 04:18:42;;;;;;;9.60;3.80;;;7.20;63.60;;;;;;5039940;28;20045;-65
2022/04/28 04:21:08;;;;;;;7.33;4.10;;;7.20;63.90;;;;;;5011521;28;20819;-65
2022/04/28 04:23:34;;;;;;;9.90;4.90;;;7.20;64.60;;;;;;5031337;28;20132;-65
2022/04/28 04:26:01;;;;;;;8.47;4.33;;;7.20;64.90;;;;;;5026975;28;20519;-65
2022/04/28 04:28:27;;;;;;;7.38;4.07;;;7.20;64.80;;;;;;5029938;28;20057;-65
2022/04/28 04:33:37;;;;;;;7.05;3.70;;;7.20;64.70;;;;;;5023127;28;20052;-65
2022/04/28 04:36:03;;;;;;;10.47;4.43;;;7.20;65.10;;;;;;5025985;28;20205;-65
2022/04/28 04:38:29;;;;;;;8.48;3.70;;;7.20;65.20;;;;;;5010252;28;20132;-65
2022/04/28 04:40:55;;;;;;;9.30;4.40;;;7.20;65.10;;;;;;5040181;28;20540;-65
2022/04/28 04:43:20;;;;;;;10.60;4.17;;;7.30;65.40;;;;;;5026926;28;20485;-65
2022/04/28 04:45:46;;;;;;;7.63;3.70;;;7.30;65.40;;;;;;5014023;28;20049;-65
2022/04/28 04:48:13;;;;;;;11.20;4.50;;;7.40;65.40;;;;;;5026863;28;20075;-65
2022/04/28 04:50:39;;;;;;;11.80;3.80;;;7.40;65.20;;;;;;5033969;28;20049;-65
2022/04/28 04:53:06;;;;;;;8.73;3.83;;;7.40;65.30;;;;;;5054433;28;20129;-65
2022/04/28 04:55:39;;;;;;;8.77;4.28;;;7.50;65.10;;;;;;5038702;28;20425;-65
2022/04/28 04:58:05;;;;;;;7.20;4.30;;;7.50;65.00;;;;;;5015159;28;20064;-65
2022/04/28 05:00:31;;;;;;;11.40;3.83;;;7.50;64.40;;;;;;5045785;28;20040;-65
2022/04/28 05:02:57;;;;;;;11.43;4.15;;;7.60;64.00;;;;;;5025259;28;20045;-65
2022/04/28 05:05:23;;;;;;;10.03;4.07;;;7.70;63.40;;;;;;5029813;28;20095;-65
2022/04/28 05:07:49;;;;;;;9.00;4.50;;;7.70;63.20;;;;;;5040387;28;20573;-65
2022/04/28 05:10:14;;;;;;;10.43;4.83;;;7.80;63.20;;;;;;5030339;28;20045;-65
2022/04/28 05:12:40;;;;;;;8.43;4.40;;;7.80;63.40;;;;;;5037525;28;20080;-65
2022/04/28 05:15:06;;;;;;;10.13;4.63;;;7.90;63.70;;;;;;5010204;28;20040;-66
2022/04/28 05:17:32;;;;;;;9.07;4.45;;;7.90;63.70;;;;;;5031154;28;20041;-66
2022/04/28 05:19:58;;;;;;;10.93;4.73;;;7.90;64.60;;;;;;5036824;28;20043;-66
2022/04/28 05:22:24;;;;;;;12.95;5.10;;;7.90;64.60;;;;;;5006476;28;20116;-66
2022/04/28 05:24:50;;;;;;;10.77;4.78;;;8.00;64.70;;;;;;5036383;28;20558;-66
2022/04/28 05:27:16;;;;;;;10.67;4.70;;;8.00;64.80;;;;;;5043933;28;20120;-66
2022/04/28 05:29:42;;;;;;;11.77;4.90;;;8.00;65.30;;;;;;5042970;28;20041;-66
2022/04/28 05:32:08;;;;;;;10.45;4.45;;;8.10;65.30;;;;;;5038082;28;20035;-66
2022/04/28 05:34:33;;;;;;;13.10;4.87;;;8.10;66.00;;;;;;5045595;28;20041;-66
2022/04/28 05:36:59;;;;;;;9.97;4.20;;;8.20;66.20;;;;;;5033767;28;20045;-66
2022/04/28 05:39:26;;;;;;;9.82;3.80;;;8.20;66.50;;;;;;5015369;28;20051;-66
2022/04/28 05:41:52;;;;;;;15.32;4.28;;;8.30;66.70;;;;;;5022684;28;20512;-66
2022/04/28 05:47:03;;;;;;;11.75;3.25;;;8.30;67.50;;;;;;5045452;28;20067;-66
2022/04/28 05:49:30;;;;;;;9.93;3.60;;;8.40;68.00;;;;;;5044817;28;20150;-66
2022/04/28 05:51:57;;;;;;;8.63;2.72;;;8.40;67.90;;;;;;5042364;28;20049;-66
2022/04/28 05:54:23;;;;;;;10.15;2.88;;;8.50;67.90;;;;;;5017809;28;20041;-66
2022/04/28 05:56:49;;;;;;;7.47;2.38;;;8.50;68.10;;;;;;5041543;28;20044;-66
2022/04/28 05:59:16;;;;;;;8.57;2.78;;;8.50;68.00;;;;;;5042290;28;20099;-66
2022/04/28 06:01:42;;;;;;;14.38;2.72;;;8.60;68.00;;;;;;5041846;28;20048;-66
2022/04/28 06:04:08;;;;;;;12.18;3.45;;;8.60;68.00;;;;;;5041863;28;20776;-66
2022/04/28 06:06:34;;;;;;;11.37;2.60;;;8.60;68.00;;;;;;5046198;28;20041;-66
2022/04/28 06:09:00;;;;;;;11.18;2.67;;;8.70;67.90;;;;;;5035544;28;20049;-66
2022/04/28 06:11:25;;;;;;;12.50;2.73;;;8.70;68.00;;;;;;5045971;28;20055;-66
2022/04/28 06:13:51;;;;;;;9.93;2.67;;;8.80;68.00;;;;;;5018491;28;20433;-66
2022/04/28 06:16:17;;;;;;;12.97;2.63;;;8.90;68.00;;;;;;5042038;28;20076;-66
2022/04/28 06:18:43;;;;;;;8.40;2.43;;;8.90;67.60;;;;;;5041601;28;20037;-66
2022/04/28 06:21:09;;;;;;;10.40;2.40;;;8.90;67.50;;;;;;5023888;28;20497;-66
2022/04/28 06:23:35;;;;;;;10.27;2.15;;;8.90;67.30;;;;;;5043701;28;20280;-66
2022/04/28 06:26:01;;;;;;;7.07;2.27;;;9.00;67.20;;;;;;5040029;28;20124;-66
2022/04/28 06:28:27;;;;;;;10.17;2.30;;;9.00;67.00;;;;;;5012840;28;20124;-66
2022/04/28 06:30:53;;;;;;;9.68;2.63;;;9.00;67.10;;;;;;5035794;28;20041;-66
2022/04/28 06:33:20;;;;;;;10.97;2.60;;;9.10;66.70;;;;;;5022881;28;20107;-66
2022/04/28 06:35:46;;;;;;;8.80;2.13;;;9.20;66.70;;;;;;5036958;28;20490;-66
2022/04/28 06:38:11;;;;;;;10.55;2.92;;;9.20;66.70;;;;;;5027913;28;20284;-66
2022/04/28 06:40:37;;;;;;;8.37;2.00;;;9.30;66.20;;;;;;5022018;28;20597;-66
2022/04/28 06:43:03;;;;;;;8.67;2.60;;;9.40;66.00;;;;;;5042415;28;20044;-66
2022/04/28 06:45:29;;;;;;;9.40;2.10;;;9.50;65.50;;;;;;5027693;28;20049;-66
2022/04/28 06:47:54;;;;;;;8.43;2.03;;;9.50;65.50;;;;;;5043317;28;20036;-66
2022/04/28 06:50:20;;;;;;;9.80;2.13;;;9.70;65.30;;;;;;5028941;28;20186;-66
2022/04/28 06:52:46;;;;;;;8.27;1.93;;;9.90;64.40;;;;;;5040671;28;20109;-66
2022/04/28 06:55:12;;;;;;;11.10;2.10;;;10.00;64.40;;;;;;5027073;28;20128;-66
2022/04/28 06:57:38;;;;;;;9.75;1.90;;;10.10;63.80;;;;;;5035733;28;20930;-66
2022/04/28 07:00:06;;;;;;;11.77;2.60;;;10.20;63.50;;;;;;5036935;28;20126;-66
2022/04/28 07:02:32;;;;;;;6.15;2.15;;;10.30;63.30;;;;;;5039794;28;20294;-66
2022/04/28 07:04:57;;;;;;;9.27;2.07;;;10.30;62.70;;;;;;5039747;28;20033;-66
2022/04/28 07:07:24;;;;;;;6.97;2.17;;;10.40;62.50;;;;;;5027320;28;20537;-66
2022/04/28 07:09:50;;;;;;;10.55;2.63;;;10.40;62.30;;;;;;5045711;28;20052;-66
2022/04/28 07:12:15;;;;;;;7.00;2.03;;;10.50;62.10;;;;;;5022477;28;20386;-66
2022/04/28 07:14:43;;;;;;;10.47;1.93;;;10.60;62.40;;;;;;5016843;28;20119;-66
2022/04/28 07:17:09;;;;;;;9.98;2.65;;;10.70;61.90;;;;;;5009537;28;20358;-66
2022/04/28 07:19:34;;;;;;;6.78;1.80;;;10.80;61.70;;;;;;5026804;28;20536;-66
2022/04/28 07:22:03;;;;;;;6.47;1.90;;;10.90;61.40;;;;;;5028606;28;20045;-66
2022/04/28 07:24:29;;;;;;;8.80;1.80;;;10.90;61.10;;;;;;5044024;28;20123;-66
2022/04/28 07:26:55;;;;;;;7.37;1.73;;;11.00;61.20;;;;;;5044709;28;20234;-66
2022/04/28 07:29:21;;;;;;;7.22;1.60;;;11.00;60.50;;;;;;5043769;28;20041;-66
2022/04/28 07:31:47;;;;;;;6.77;1.50;;;11.00;59.90;;;;;;5031084;28;20451;-66
2022/04/28 07:34:12;;;;;;;9.17;1.60;;;10.90;59.70;;;;;;5032782;28;20681;-66
2022/04/28 07:36:38;;;;;;;6.93;1.40;;;10.90;59.60;;;;;;5044527;28;20052;-66
2022/04/28 07:39:04;;;;;;;7.43;1.40;;;10.90;59.20;;;;;;5046999;28;20033;-66
2022/04/28 07:41:30;;;;;;;6.07;1.17;;;10.90;59.50;;;;;;5026333;28;20040;-66
2022/04/28 07:43:55;;;;;;;8.43;1.50;;;11.00;59.50;;;;;;5046808;28;20568;-66
2022/04/28 07:46:21;;;;;;;4.83;1.00;;;11.10;59.40;;;;;;5016748;28;20072;-66
2022/04/28 07:48:47;;;;;;;9.30;1.50;;;11.10;59.30;;;;;;5030703;28;20045;-66
2022/04/28 07:51:12;;;;;;;8.63;1.53;;;11.20;58.80;;;;;;5028942;28;20040;-66
2022/04/28 07:53:38;;;;;;;7.53;1.47;;;11.30;58.50;;;;;;5012325;28;20036;-66
2022/04/28 07:56:11;;;;;;;4.80;1.00;;;11.40;58.40;;;;;;5041829;28;20040;-66
2022/04/28 07:58:37;;;;;;;7.20;1.20;;;11.50;58.20;;;;;;5024368;28;20298;-66
2022/04/28 08:01:04;;;;;;;4.95;1.23;;;11.50;58.10;;;;;;5031706;28;20043;-66
2022/04/28 08:03:30;;;;;;;9.00;1.15;;;11.50;58.00;;;;;;5048008;28;20047;-66
2022/04/28 08:05:56;;;;;;;6.67;1.37;;;11.60;57.50;;;;;;5039078;28;20451;-66
2022/04/28 08:08:22;;;;;;;7.25;1.38;;;11.60;57.80;;;;;;5043676;28;20056;-66
2022/04/28 08:10:48;;;;;;;7.43;1.30;;;11.60;58.10;;;;;;5043871;28;20040;-66
2022/04/28 08:13:14;;;;;;;6.03;1.20;;;11.60;57.60;;;;;;5038584;28;20393;-66
2022/04/28 08:15:41;;;;;;;5.53;1.00;;;11.60;57.30;;;;;;5045765;28;20059;-66
2022/04/28 08:18:07;;;;;;;3.83;1.00;;;11.60;57.20;;;;;;5044934;28;20115;-66
2022/04/28 08:20:33;;;;;;;9.23;1.67;;;11.60;57.10;;;;;;5043976;28;20032;-66
2022/04/28 08:22:59;;;;;;;5.73;1.40;;;11.60;57.00;;;;;;5031566;28;20037;-66
2022/04/28 08:25:24;;;;;;;6.40;2.10;;;11.60;56.90;;;;;;5026451;28;20412;-66
2022/04/28 08:27:50;;;;;;;7.23;1.50;;;11.60;56.70;;;;;;5043209;28;20574;-66
2022/04/28 08:30:16;;;;;;;6.73;1.40;;;11.70;56.80;;;;;;5038678;28;20060;-66
2022/04/28 08:32:42;;;;;;;7.63;1.67;;;11.70;56.70;;;;;;5050476;28;20048;-67
2022/04/28 08:35:08;;;;;;;9.83;1.57;;;11.80;56.80;;;;;;5003252;28;20040;-67
2022/04/28 08:37:36;;;;;;;6.80;1.55;;;11.90;57.00;;;;;;5047113;28;20043;-66
2022/04/28 08:40:02;;;;;;;9.27;1.50;;;12.00;56.30;;;;;;5016073;28;20036;-66
2022/04/28 08:42:30;;;;;;;4.88;1.38;;;12.10;56.00;;;;;;5046912;28;20050;-66
2022/04/28 08:44:59;;;;;;;7.15;1.63;;;12.20;55.50;;;;;;5033665;28;20443;-67
2022/04/28 08:47:25;;;;;;;6.47;1.40;;;12.30;55.20;;;;;;5046287;28;20119;-67
2022/04/28 08:49:51;;;;;;;8.45;2.00;;;12.50;55.40;;;;;;5051438;28;20825;-67
2022/04/28 08:52:18;;;;;;;8.03;1.90;;;12.60;54.50;;;;;;5050549;28;20044;-67
2022/04/28 08:54:47;;;;;;;6.75;1.40;;;12.60;54.40;;;;;;5034981;28;20033;-67
2022/04/28 08:57:13;;;;;;;7.13;1.52;;;12.70;54.70;;;;;;5022813;28;20050;-67
2022/04/28 08:59:40;;;;;;;8.87;1.67;;;12.70;54.00;;;;;;5047788;28;20040;-67
2022/04/28 09:02:08;;;;;;;7.20;1.40;;;12.70;53.90;;;;;;5047351;28;20291;-67
2022/04/28 09:04:33;;;;;;;6.72;1.50;;;12.70;54.00;;;;;;5025902;28;20309;-67
2022/04/28 09:06:59;;;;;;;6.40;1.43;;;12.50;53.80;;;;;;5043365;28;20552;-67
2022/04/28 09:09:27;;;;;;;8.23;1.65;;;12.40;53.90;;;;;;5044791;28;20079;-67
2022/04/28 09:11:58;;;;;;;9.45;1.58;;;12.30;54.50;;;;;;5047019;28;20536;-67
2022/04/28 09:14:24;;;;;;;9.43;1.92;;;12.30;54.40;;;;;;5038821;28;20045;-67
2022/04/28 09:17:02;;;;;;;8.73;1.70;;;12.30;54.00;;;;;;5044463;28;20127;-67
2022/04/28 09:19:33;;;;;;;7.18;1.75;;;12.20;54.40;;;;;;5050891;28;20036;-67
2022/04/28 09:22:04;;;;;;;6.85;2.28;;;12.30;54.80;;;;;;5029731;28;20116;-67
2022/04/28 09:24:30;;;;;;;7.83;2.00;;;12.30;54.50;;;;;;5050026;28;20261;-67
2022/04/28 09:26:56;;;;;;;8.10;1.60;;;12.40;54.20;;;;;;5047652;28;20299;-67
2022/04/28 09:29:24;;;;;;;9.17;1.77;;;12.40;54.50;;;;;;5031065;28;20044;-67
2022/04/28 09:31:52;;;;;;;9.50;1.90;;;12.50;54.50;;;;;;5044810;28;20044;-67
2022/04/28 09:34:20;;;;;;;10.97;1.87;;;12.50;54.10;;;;;;5049120;28;20048;-67
2022/04/28 09:36:47;;;;;;;7.60;1.47;;;12.50;53.90;;;;;;5033694;28;20375;-67
2022/04/28 09:44:52;;;;;;;8.40;1.70;;;12.70;53.30;;;;;;5043049;28;20377;-67
2022/04/28 09:47:22;;;;;;;9.47;2.03;;;12.80;53.50;;;;;;5027135;28;20318;-67
2022/04/28 09:49:58;;;;;;;7.03;1.60;;;12.90;53.60;;;;;;5049163;28;20387;-67
2022/04/28 09:52:26;;;;;;;12.67;1.93;;;13.00;53.30;;;;;;5047704;28;20291;-67
2022/04/28 09:54:54;;;;;;;8.03;2.17;;;13.10;53.20;;;;;;5042339;28;20278;-67
2022/04/28 09:57:21;;;;;;;7.57;1.87;;;13.20;53.00;;;;;;5041604;28;20345;-67
2022/04/28 09:59:49;;;;;;;11.23;2.10;;;13.40;53.10;;;;;;5050163;28;20279;-67
2022/04/28 10:02:19;;;;;;;6.30;1.80;;;13.40;52.30;;;;;;5045303;28;20282;-67
2022/04/28 10:04:47;;;;;;;7.47;1.73;;;13.50;52.20;;;;;;5029313;28;20876;-67
2022/04/28 10:07:16;;;;;;;5.83;1.90;;;13.50;52.30;;;;;;5043280;28;20290;-67
2022/04/28 10:09:45;;;;;;;7.33;1.83;;;13.60;52.10;;;;;;5045400;28;20691;-67
2022/04/28 10:12:14;;;;;;;13.23;2.00;;;13.60;51.90;;;;;;5027173;28;20290;-67
2022/04/28 10:14:42;;;;;;;8.07;1.90;;;13.70;52.20;;;;;;5022602;28;20286;-67
2022/04/28 10:17:19;;;;;;;7.90;1.70;;;13.80;51.80;;;;;;5048829;28;20299;-67
2022/04/28 10:19:51;;;;;;;8.57;2.47;;;13.90;51.60;;;;;;5024373;28;21434;-67
2022/04/28 10:22:21;;;;;;;10.10;1.80;;;14.00;51.60;;;;;;5030639;28;20325;-67
2022/04/28 10:33:21;;;;;;;7.57;1.97;;;14.20;50.30;;;;;;5037577;28;20396;-67
2022/04/28 10:35:49;;;;;;;5.97;1.83;;;14.30;50.50;;;;;;5028162;28;20325;-67
2022/04/28 10:38:34;;;;;;;9.30;1.87;;;14.30;49.90;;;;;;5045531;28;20279;-67
2022/04/28 10:41:09;;;;;;;8.82;2.15;;;14.30;50.10;;;;;;5047698;28;20352;-67
2022/04/28 10:43:43;;;;;;;9.00;1.88;;;14.30;50.30;;;;;;5037745;28;20036;-67
2022/04/28 10:46:09;;;;;;;7.25;2.08;;;14.20;49.80;;;;;;5025367;28;20392;-67
2022/04/28 10:48:46;;;;;;;8.23;2.17;;;14.20;50.40;;;;;;5026993;28;20049;-67
2022/04/28 10:51:21;;;;;;;8.17;1.97;;;14.30;50.20;;;;;;5028795;28;20571;-67
2022/04/28 10:54:03;;;;;;;8.70;2.00;;;14.40;50.20;;;;;;5042137;28;20669;-67
2022/04/28 10:56:41;;;;;;;5.77;1.90;;;14.50;50.10;;;;;;5035707;28;20303;-67
2022/04/28 10:59:34;;;;;;;10.17;2.13;;;14.50;50.40;;;;;;5036213;28;20417;-67
2022/04/28 11:02:15;;;;;;;7.87;1.90;;;14.50;50.10;;;;;;5024410;28;20353;-67
2022/04/28 11:04:43;;;;;;;9.13;1.67;;;14.50;49.50;;;;;;5044288;28;20287;-67
2022/04/28 11:07:11;;;;;;;7.13;2.07;;;14.40;50.30;;;;;;5029606;28;20275;-67
2022/04/28 11:09:43;;;;;;;9.03;2.23;;;14.50;50.60;;;;;;5038718;28;20286;-67
2022/04/28 11:12:12;;;;;;;8.67;2.33;;;14.70;49.70;;;;;;5040206;28;20852;-67
2022/04/28 11:15:02;;;;;;;10.23;2.07;;;14.60;50.00;;;;;;5027071;28;20321;-67
2022/04/28 11:17:31;;;;;;;6.93;1.97;;;14.60;50.10;;;;;;5025691;28;20412;-67
2022/04/28 11:20:04;;;;;;;6.53;1.77;;;14.60;50.10;;;;;;5043989;28;20283;-68
2022/04/28 11:22:31;;;;;;;6.90;1.97;;;14.80;50.00;;;;;;5058625;28;20747;-68
2022/04/28 11:24:57;;;;;;;10.60;1.97;;;14.80;49.60;;;;;;5042657;28;20319;-68
2022/04/28 11:27:24;;;;;;;8.27;1.93;;;14.90;49.80;;;;;;5036234;28;20292;-68
2022/04/28 11:30:01;;;;;;;8.37;1.77;;;15.00;49.60;;;;;;5034669;28;20279;-68
2022/04/28 11:32:26;;;;;;;8.87;2.23;;;15.10;49.00;;;;;;5042113;28;20286;-68
2022/04/28 11:34:55;;;;;;;6.37;1.77;;;15.00;48.90;;;;;;5018988;28;20283;-68
2022/04/28 11:37:23;;;;;;;8.40;2.20;;;15.00;49.20;;;;;;5019967;28;20076;-68
2022/04/28 11:39:54;;;;;;;8.57;1.70;;;15.00;49.40;;;;;;5021265;28;20331;-68
2022/04/28 11:42:21;;;;;;;9.40;1.93;;;15.10;49.40;;;;;;5036179;28;20800;-68
2022/04/28 11:44:52;;;;;;;9.33;1.83;;;15.20;48.70;;;;;;5022391;28;20287;-68
2022/04/28 11:47:22;;;;;;;8.13;2.07;;;15.10;48.80;;;;;;5037600;28;20283;-68
2022/04/28 11:49:52;;;;;;;7.77;2.17;;;15.20;48.90;;;;;;5040369;28;20682;-68
2022/04/28 11:52:23;;;;;;;8.77;2.10;;;15.20;49.30;;;;;;5035465;28;20353;-68
2022/04/28 11:54:50;;;;;;;6.97;1.87;;;15.30;48.80;;;;;;5034513;28;20276;-68
2022/04/28 11:57:18;;;;;;;11.20;2.40;;;15.40;48.10;;;;;;5039946;28;20307;-68
2022/04/28 11:59:44;;;;;;;6.03;1.60;;;15.50;48.10;;;;;;5041874;28;20652;-68
2022/04/28 12:02:34;;;;;;;8.83;2.23;;;15.70;48.40;;;;;;5010540;28;20290;-68
2022/04/28 12:05:03;;;;;;;8.70;2.47;;;15.70;47.70;;;;;;5020494;28;20029;-68
2022/04/28 12:07:37;;;;;;;8.57;1.87;;;15.60;47.80;;;;;;5024773;28;20276;-68
2022/04/28 12:15:33;;;;;;;9.15;1.95;;;15.60;48.10;;;;;;5027210;28;20444;-68
2022/04/28 12:20:57;;;;;;;7.87;1.87;;;15.30;48.20;;;;;;5040012;28;20658;-68
2022/04/28 12:23:28;;;;;;;10.27;1.70;;;15.30;48.40;;;;;;5028925;28;20284;-68
2022/04/28 12:26:02;;;;;;;8.07;1.67;;;15.30;48.70;;;;;;5025933;28;20338;-68
2022/04/28 12:28:32;;;;;;;9.50;1.93;;;15.30;48.80;;;;;;5034400;28;20367;-68
2022/04/28 12:30:59;;;;;;;10.47;2.33;;;15.40;48.20;;;;;;5042688;28;20328;-68
2022/04/28 12:33:37;;;;;;;7.47;1.80;;;15.40;48.10;;;;;;5047773;28;20780;-68
2022/04/28 12:36:07;;;;;;;5.40;1.47;;;15.40;48.00;;;;;;5046200;28;20788;-68
2022/04/28 12:38:35;;;;;;;6.73;2.00;;;15.30;47.90;;;;;;5045150;28;20286;-68
2022/04/28 12:41:22;;;;;;;5.20;1.80;;;15.20;48.00;;;;;;5046998;28;20284;-68
2022/04/28 12:43:57;;;;;;;9.90;1.83;;;15.20;48.50;;;;;;5030898;28;20283;-68
2022/04/28 12:46:32;;;;;;;10.07;2.30;;;15.30;49.40;;;;;;5030293;28;20287;-68
2022/04/28 12:49:03;;;;;;;7.35;1.98;;;15.50;49.00;;;;;;5044408;28;20393;-68
2022/04/28 12:51:30;;;;;;;6.00;1.97;;;15.70;48.60;;;;;;5028022;28;20044;-68
2022/04/28 12:54:18;;;;;;;6.27;2.10;;;15.70;48.00;;;;;;5041318;28;20302;-68
2022/04/28 12:56:54;;;;;;;7.33;1.70;;;15.80;47.80;;;;;;5042307;28;20304;-68
2022/04/28 12:59:21;;;;;;;5.80;1.80;;;15.80;47.00;;;;;;5043507;28;20283;-68
2022/04/28 13:01:48;;;;;;;10.00;2.40;;;15.70;47.50;;;;;;5030288;28;20292;-68
2022/04/28 13:04:24;;;;;;;6.77;2.43;;;15.70;47.60;;;;;;5037031;28;20346;-68
2022/04/28 13:06:51;;;;;;;7.37;2.10;;;15.70;47.80;;;;;;5039215;28;20326;-68
2022/04/28 13:09:18;;;;;;;9.07;1.70;;;15.70;47.80;;;;;;5029483;28;20339;-68
2022/04/28 13:11:46;;;;;;;6.20;2.07;;;15.50;48.10;;;;;;5048619;28;20314;-68
2022/04/28 13:14:18;;;;;;;4.70;1.80;;;15.50;48.10;;;;;;5027790;28;20295;-68
2022/04/28 13:16:46;;;;;;;6.63;2.07;;;15.50;47.70;;;;;;5043282;28;20365;-68
2022/04/28 13:19:14;;;;;;;6.23;2.10;;;15.50;47.70;;;;;;5027425;28;20380;-68
2022/04/28 13:21:40;;;;;;;10.30;2.00;;;15.50;48.40;;;;;;5011290;28;20379;-68
2022/04/28 13:24:07;;;;;;;12.27;2.40;;;15.60;48.30;;;;;;5038851;28;20686;-68
2022/04/28 13:26:33;;;;;;;6.90;1.83;;;15.70;48.20;;;;;;5055546;28;20659;-68
2022/04/28 13:28:59;;;;;;;11.13;2.70;;;15.70;47.70;;;;;;5046055;28;20298;-68
2022/04/28 13:31:26;;;;;;;8.27;1.90;;;15.50;47.70;;;;;;5027968;28;20345;-68